createdAt,value
2022-09-18T00:02:10.788Z,13.90
2022-09-18T00:04:36.269Z,13.90
2022-09-18T00:06:59.839Z,13.90
2022-09-18T00:09:23.530Z,13.90
2022-09-18T00:11:49.379Z,13.80
2022-09-18T00:14:16.162Z,13.80
2022-09-18T00:16:40.743Z,13.80
2022-09-18T00:19:04.794Z,13.60
2022-09-18T00:21:31.879Z,13.70
2022-09-18T00:23:58.241Z,13.90
2022-09-18T00:26:22.785Z,13.80
2022-09-18T00:28:46.691Z,13.80
2022-09-18T00:31:13.858Z,13.80
2022-09-18T00:33:39.454Z,13.70
2022-09-18T00:36:04.110Z,13.90
2022-09-18T00:38:30.293Z,14.00
2022-09-18T00:40:53.680Z,14.00
2022-09-18T00:43:22.504Z,14.00
2022-09-18T00:45:54.131Z,13.90
2022-09-18T00:48:18.720Z,13.90
2022-09-18T00:50:42.288Z,13.70
2022-09-18T00:53:06.825Z,13.70
2022-09-18T00:55:38.124Z,13.70
2022-09-18T00:58:04.451Z,13.80
2022-09-18T01:00:28.019Z,14.00
2022-09-18T01:02:51.748Z,14.00
2022-09-18T01:05:18.801Z,13.80
2022-09-18T01:07:59.131Z,13.70
2022-09-18T01:10:39.935Z,13.90
2022-09-18T01:13:12.402Z,13.90
2022-09-18T01:15:47.473Z,13.90
2022-09-18T01:18:20.068Z,13.90
2022-09-18T01:21:13.172Z,13.70
2022-09-18T01:24:13.771Z,13.80
2022-09-18T01:26:54.328Z,13.70
2022-09-18T01:29:31.542Z,14.00
2022-09-18T01:32:01.972Z,13.80
2022-09-18T01:34:31.876Z,13.80
2022-09-18T01:37:02.921Z,13.90
2022-09-18T01:39:33.065Z,13.60
2022-09-18T01:41:58.461Z,13.70
2022-09-18T01:44:28.203Z,13.80
2022-09-18T01:46:57.823Z,13.80
2022-09-18T01:49:28.379Z,13.70
2022-09-18T01:51:57.026Z,13.80
2022-09-18T01:54:26.600Z,13.90
2022-09-18T01:56:54.928Z,13.80
2022-09-18T01:59:25.725Z,13.70
2022-09-18T02:02:02.130Z,13.50
2022-09-18T02:04:31.902Z,13.60
2022-09-18T02:07:06.242Z,13.50
2022-09-18T02:09:31.101Z,13.50
2022-09-18T02:11:58.572Z,13.50
2022-09-18T02:14:27.364Z,13.60
2022-09-18T02:17:17.789Z,13.50
2022-09-18T02:19:44.801Z,13.60
2022-09-18T02:22:12.085Z,13.60
2022-09-18T02:24:40.514Z,13.70
2022-09-18T02:27:08.362Z,13.70
2022-09-18T02:29:33.923Z,13.70
2022-09-18T02:31:57.505Z,13.50
2022-09-18T02:34:22.332Z,13.40
2022-09-18T02:37:12.506Z,13.30
2022-09-18T02:39:52.401Z,13.50
2022-09-18T02:42:36.944Z,13.50
2022-09-18T02:45:10.744Z,13.40
2022-09-18T02:48:14.159Z,13.40
2022-09-18T02:50:51.498Z,13.40
2022-09-18T02:53:26.227Z,13.50
2022-09-18T02:55:57.219Z,13.50
2022-09-18T02:58:29.670Z,13.50
2022-09-18T03:00:58.298Z,13.50
2022-09-18T03:03:28.485Z,13.50
2022-09-18T03:05:58.768Z,13.50
2022-09-18T03:08:22.363Z,13.50
2022-09-18T03:10:45.852Z,13.40
2022-09-18T03:13:09.320Z,13.50
2022-09-18T03:15:33.114Z,13.50
2022-09-18T03:17:58.180Z,13.60
2022-09-18T03:20:21.698Z,13.70
2022-09-18T03:22:45.779Z,13.40
2022-09-18T03:25:12.419Z,13.50
2022-09-18T03:27:36.542Z,13.60
2022-09-18T03:30:00.045Z,13.60
2022-09-18T03:32:23.602Z,13.60
2022-09-18T03:34:50.239Z,13.50
2022-09-18T03:37:13.734Z,13.60
2022-09-18T03:39:37.379Z,13.50
2022-09-18T03:42:02.994Z,13.40
2022-09-18T03:44:28.209Z,13.30
2022-09-18T03:46:54.154Z,13.30
2022-09-18T03:49:17.772Z,13.40
2022-09-18T03:51:42.961Z,13.20
2022-09-18T03:54:06.718Z,13.50
2022-09-18T03:56:45.187Z,13.40
2022-09-18T03:59:32.188Z,13.40
2022-09-18T04:01:55.866Z,13.50
2022-09-18T04:04:28.687Z,13.50
2022-09-18T04:07:12.136Z,13.50
2022-09-18T04:10:05.176Z,13.30
2022-09-18T04:12:29.080Z,13.60
2022-09-18T04:15:12.831Z,13.50
2022-09-18T04:17:36.394Z,13.70
2022-09-18T04:20:00.127Z,13.60
2022-09-18T04:22:25.114Z,13.60
2022-09-18T04:24:50.486Z,13.60
2022-09-18T04:27:15.034Z,13.60
2022-09-18T04:29:38.494Z,13.50
2022-09-18T04:32:05.458Z,13.60
2022-09-18T04:34:28.934Z,13.60
2022-09-18T04:36:52.450Z,13.50
2022-09-18T04:39:17.707Z,13.60
2022-09-18T04:41:41.293Z,13.80
2022-09-18T04:44:05.093Z,13.70
2022-09-18T04:46:28.770Z,13.70
2022-09-18T04:48:52.318Z,13.80
2022-09-18T04:51:19.774Z,13.70
2022-09-18T04:53:45.313Z,13.50
2022-09-18T04:56:10.440Z,13.60
2022-09-18T04:58:36.340Z,13.60
2022-09-18T05:01:00.458Z,13.60
2022-09-18T05:03:25.079Z,13.70
2022-09-18T05:05:49.391Z,13.60
2022-09-18T05:08:14.137Z,13.70
2022-09-18T05:10:37.716Z,13.80
2022-09-18T05:13:06.432Z,13.70
2022-09-18T05:15:35.274Z,13.60
2022-09-18T05:18:05.558Z,13.60
2022-09-18T05:20:34.024Z,13.60
2022-09-18T05:23:02.270Z,13.60
2022-09-18T05:25:29.043Z,13.60
2022-09-18T05:27:57.802Z,13.70
2022-09-18T05:30:27.487Z,13.50
2022-09-18T05:33:04.223Z,13.60
2022-09-18T05:35:30.790Z,13.70
2022-09-18T05:38:10.573Z,13.80
2022-09-18T05:40:39.622Z,13.80
2022-09-18T05:43:03.927Z,13.80
2022-09-18T05:45:30.608Z,13.70
2022-09-18T05:47:56.894Z,13.70
2022-09-18T05:50:21.393Z,13.60
2022-09-18T05:52:46.048Z,13.60
2022-09-18T05:55:10.556Z,13.50
2022-09-18T05:57:38.212Z,13.50
2022-09-18T06:00:01.864Z,13.40
2022-09-18T06:02:26.883Z,13.50
2022-09-18T06:04:58.410Z,13.60
2022-09-18T06:07:21.948Z,13.70
2022-09-18T06:09:45.423Z,13.60
2022-09-18T06:12:09.452Z,13.50
2022-09-18T06:14:34.465Z,13.70
2022-09-18T06:17:00.246Z,13.60
2022-09-18T06:19:25.260Z,13.70
2022-09-18T06:21:49.414Z,13.70
2022-09-18T06:24:15.592Z,13.60
2022-09-18T06:26:50.155Z,13.70
2022-09-18T06:29:13.782Z,13.60
2022-09-18T06:31:47.681Z,13.80
2022-09-18T06:34:20.958Z,13.70
2022-09-18T06:48:34.067Z,13.50
2022-09-18T06:51:00.272Z,13.50
2022-09-18T06:53:29.254Z,13.40
2022-09-18T06:56:02.854Z,13.20
2022-09-18T06:58:32.114Z,13.20
2022-09-18T07:03:17.428Z,13.40
2022-09-18T07:06:01.225Z,13.60
2022-09-18T07:09:14.491Z,13.60
2022-09-18T07:11:50.428Z,13.50
2022-09-18T07:14:14.568Z,13.60
2022-09-18T07:16:38.350Z,13.60
2022-09-18T07:19:05.110Z,13.70
2022-09-18T07:21:28.926Z,13.80
2022-09-18T07:23:52.566Z,13.80
2022-09-18T07:26:19.128Z,13.80
2022-09-18T07:28:46.593Z,13.80
2022-09-18T07:31:17.332Z,13.90
2022-09-18T07:33:42.250Z,14.20
2022-09-18T07:36:11.883Z,14.30
2022-09-18T07:38:35.415Z,14.20
2022-09-18T07:41:02.990Z,14.30
2022-09-18T07:43:31.032Z,14.40
2022-09-18T07:45:56.138Z,14.50
2022-09-18T07:48:20.317Z,14.30
2022-09-18T07:50:47.496Z,14.40
2022-09-18T07:53:13.946Z,14.30
2022-09-18T07:55:38.458Z,14.00
2022-09-18T07:58:05.363Z,14.20
2022-09-18T08:00:52.922Z,14.20
2022-09-18T08:03:18.696Z,14.40
2022-09-18T08:06:00.956Z,14.60
2022-09-18T08:08:26.787Z,14.60
2022-09-18T08:11:22.700Z,14.60
2022-09-18T08:14:17.963Z,14.60
2022-09-18T08:16:58.157Z,14.40
2022-09-18T08:19:33.486Z,14.40
2022-09-18T08:22:11.378Z,14.30
2022-09-18T08:24:42.851Z,14.30
2022-09-18T08:27:07.016Z,14.40
2022-09-18T08:29:30.826Z,14.40
2022-09-18T08:32:00.954Z,14.40
2022-09-18T08:34:24.773Z,14.40
2022-09-18T08:36:48.437Z,14.50
2022-09-18T08:39:32.199Z,14.40
2022-09-18T08:42:25.778Z,14.40
2022-09-18T08:44:53.545Z,14.50
2022-09-18T08:47:24.708Z,14.40
2022-09-18T08:49:54.731Z,14.40
2022-09-18T08:52:22.954Z,14.50
2022-09-18T08:54:59.399Z,14.50
2022-09-18T08:57:32.207Z,14.40
2022-09-18T09:00:09.553Z,14.50
2022-09-18T09:02:43.842Z,14.70
2022-09-18T09:05:12.540Z,14.70
2022-09-18T09:08:12.186Z,14.70
2022-09-18T09:10:51.938Z,14.50
2022-09-18T09:14:10.832Z,14.60
2022-09-18T09:16:44.228Z,14.60
2022-09-18T09:19:28.359Z,14.80
2022-09-18T09:22:01.766Z,14.90
2022-09-18T09:24:34.147Z,15.00
2022-09-18T09:27:07.164Z,15.10
2022-09-18T09:29:59.956Z,15.00
2022-09-18T09:32:51.035Z,15.00
2022-09-18T09:35:32.561Z,15.10
2022-09-18T09:38:17.680Z,15.20
2022-09-18T09:40:46.428Z,15.10
2022-09-18T09:43:21.203Z,15.00
2022-09-18T09:45:50.205Z,15.20
2022-09-18T09:48:22.619Z,15.20
2022-09-18T09:50:54.886Z,15.20
2022-09-18T09:53:19.791Z,15.40
2022-09-18T09:55:54.451Z,15.40
2022-09-18T09:58:35.088Z,15.50
2022-09-18T10:01:09.354Z,15.40
2022-09-18T10:03:56.618Z,15.20
2022-09-18T10:06:37.776Z,15.30
2022-09-18T10:09:11.014Z,15.30
2022-09-18T10:11:39.054Z,15.50
2022-09-18T10:14:07.759Z,15.40
2022-09-18T10:16:37.574Z,15.50
2022-09-18T10:19:05.649Z,15.70
2022-09-18T10:21:35.653Z,15.50
2022-09-18T10:24:17.238Z,15.20
2022-09-18T10:26:47.404Z,15.40
2022-09-18T10:29:12.110Z,15.30
2022-09-18T10:31:51.629Z,15.20
2022-09-18T10:34:35.647Z,15.20
2022-09-18T10:36:59.320Z,15.10
2022-09-18T10:39:31.566Z,15.00
2022-09-18T10:42:01.580Z,15.00
2022-09-18T10:44:28.949Z,14.70
2022-09-18T10:47:09.144Z,14.70
2022-09-18T10:49:40.795Z,15.00
2022-09-18T10:52:28.512Z,15.10
2022-09-18T10:55:17.408Z,15.10
2022-09-18T10:58:06.717Z,15.30
2022-09-18T11:00:43.690Z,15.20
2022-09-18T11:03:37.649Z,15.30
2022-09-18T11:06:04.769Z,15.40
2022-09-18T11:08:33.806Z,15.30
2022-09-18T11:11:05.276Z,15.40
2022-09-18T11:13:32.475Z,15.50
2022-09-18T11:15:59.550Z,15.20
2022-09-18T11:18:27.655Z,15.20
2022-09-18T11:20:53.016Z,15.20
2022-09-18T11:23:29.746Z,15.10
2022-09-18T11:26:20.302Z,15.00
2022-09-18T11:28:44.704Z,15.10
2022-09-18T11:31:18.263Z,14.60
2022-09-18T11:33:51.537Z,14.40
2022-09-18T11:36:29.969Z,14.40
2022-09-18T11:38:55.319Z,14.40
2022-09-18T11:41:25.422Z,14.20
2022-09-18T11:44:02.087Z,14.20
2022-09-18T11:46:41.616Z,14.30
2022-09-18T11:49:12.883Z,14.40
2022-09-18T11:51:51.058Z,14.60
2022-09-18T11:54:28.008Z,14.90
2022-09-18T11:56:56.591Z,14.60
2022-09-18T11:59:28.741Z,14.60
2022-09-18T12:01:58.642Z,14.60
2022-09-18T12:04:37.760Z,14.60
2022-09-18T12:07:13.725Z,14.80
2022-09-18T12:09:44.713Z,14.80
2022-09-18T12:12:14.811Z,14.60
2022-09-18T12:14:45.798Z,14.60
2022-09-18T12:17:21.484Z,14.60
2022-09-18T12:19:53.586Z,14.50
2022-09-18T12:22:25.025Z,14.40
2022-09-18T12:24:48.882Z,14.50
2022-09-18T12:27:27.913Z,14.50
2022-09-18T12:30:10.543Z,14.70
2022-09-18T12:33:13.549Z,14.70
2022-09-18T12:36:01.341Z,14.70
2022-09-18T12:38:45.657Z,14.50
2022-09-18T12:41:29.644Z,14.50
2022-09-18T12:44:21.876Z,14.60
2022-09-18T12:47:02.251Z,14.80
2022-09-18T12:49:46.133Z,14.80
2022-09-18T12:52:27.776Z,14.70
2022-09-18T12:55:23.840Z,14.50
2022-09-18T12:58:09.016Z,14.50
2022-09-18T13:00:32.711Z,14.60
2022-09-18T13:03:03.041Z,14.80
2022-09-18T13:05:34.052Z,14.70
2022-09-18T13:08:08.060Z,14.70
2022-09-18T13:10:38.613Z,14.60
2022-09-18T13:13:13.902Z,14.60
2022-09-18T13:15:43.201Z,14.80
2022-09-18T13:18:22.322Z,14.60
2022-09-18T13:20:47.344Z,14.70
2022-09-18T13:23:19.317Z,14.60
2022-09-18T13:25:43.393Z,14.90
2022-09-18T13:28:13.368Z,14.80
2022-09-18T13:30:37.378Z,14.80
2022-09-18T13:33:03.302Z,15.00
2022-09-18T13:35:30.553Z,15.10
2022-09-18T13:38:18.761Z,15.00
2022-09-18T13:40:45.326Z,15.00
2022-09-18T13:43:45.646Z,14.90
2022-09-18T13:46:30.190Z,15.00
2022-09-18T13:48:56.653Z,14.90
2022-09-18T13:51:24.116Z,15.00
2022-09-18T13:53:52.219Z,14.90
2022-09-18T13:56:18.491Z,14.80
2022-09-18T13:59:00.644Z,14.80
2022-09-18T14:02:01.578Z,14.80
2022-09-18T14:05:07.222Z,14.90
2022-09-18T14:07:58.297Z,14.60
2022-09-18T14:10:31.297Z,14.60
2022-09-18T14:13:38.944Z,14.60
2022-09-18T14:16:09.195Z,14.80
2022-09-18T14:18:40.608Z,14.80
2022-09-18T14:21:25.242Z,14.70
2022-09-18T14:24:42.036Z,14.80
2022-09-18T14:27:48.769Z,14.60
2022-09-18T14:30:22.286Z,14.50
2022-09-18T14:33:07.629Z,14.60
2022-09-18T14:35:45.067Z,14.60
2022-09-18T14:38:28.837Z,14.50
2022-09-18T14:40:59.733Z,14.40
2022-09-18T14:43:26.606Z,14.60
2022-09-18T14:45:51.544Z,14.50
2022-09-18T14:48:27.390Z,14.50
2022-09-18T14:51:08.937Z,14.50
2022-09-18T14:53:42.724Z,14.80
2022-09-18T14:56:13.609Z,14.60
2022-09-18T14:58:40.974Z,14.70
2022-09-18T15:01:07.459Z,14.70
2022-09-18T15:03:35.571Z,14.70
2022-09-18T15:06:10.879Z,14.60
2022-09-18T15:08:34.856Z,14.60
2022-09-18T15:11:00.668Z,14.40
2022-09-18T15:13:24.799Z,14.50
2022-09-18T15:15:59.619Z,14.40
2022-09-18T15:18:27.472Z,14.20
2022-09-18T15:20:53.176Z,14.30
2022-09-18T15:23:23.053Z,14.30
2022-09-18T15:25:51.052Z,14.40
2022-09-18T15:28:14.721Z,14.40
2022-09-18T15:30:39.185Z,14.20
2022-09-18T15:33:08.112Z,14.40
2022-09-18T15:35:35.749Z,14.30
2022-09-18T15:38:03.677Z,14.30
2022-09-18T15:40:30.442Z,14.20
2022-09-18T15:42:58.346Z,14.30
2022-09-18T15:45:24.215Z,14.20
2022-09-18T15:47:48.967Z,14.10
2022-09-18T15:50:43.146Z,14.10
2022-09-18T15:53:26.076Z,14.00
2022-09-18T15:56:01.245Z,14.00
2022-09-18T15:58:44.171Z,14.10
2022-09-18T16:01:16.327Z,14.00
2022-09-18T16:03:40.697Z,14.00
2022-09-18T16:06:08.569Z,13.90
2022-09-18T16:08:36.781Z,13.80
2022-09-18T16:11:02.207Z,13.90
2022-09-18T16:13:37.357Z,14.00
2022-09-18T16:16:26.531Z,14.00
2022-09-18T16:18:55.549Z,14.10
2022-09-18T16:21:21.245Z,14.10
2022-09-18T16:23:50.635Z,14.20
2022-09-18T16:26:16.888Z,14.10
2022-09-18T16:28:44.999Z,14.00
2022-09-18T16:31:08.586Z,14.10
2022-09-18T16:33:34.515Z,14.10
2022-09-18T16:36:02.799Z,14.10
2022-09-18T16:38:27.683Z,14.00
2022-09-18T16:40:51.195Z,14.00
2022-09-18T16:43:14.575Z,14.00
2022-09-18T16:45:38.761Z,14.10
2022-09-18T16:48:02.394Z,14.00
2022-09-18T16:50:26.158Z,14.10
2022-09-18T16:52:49.798Z,14.20
2022-09-18T16:55:15.341Z,14.00
2022-09-18T16:57:40.137Z,13.90
2022-09-18T17:00:08.016Z,14.00
2022-09-18T17:02:31.652Z,13.90
2022-09-18T17:04:55.312Z,13.50
2022-09-18T17:07:18.826Z,13.60
2022-09-18T17:09:42.286Z,13.20
2022-09-18T17:12:07.683Z,12.90
2022-09-18T17:14:31.314Z,12.90
2022-09-18T17:16:55.021Z,13.00
2022-09-18T17:19:19.017Z,12.90
2022-09-18T17:21:42.638Z,12.60
2022-09-18T17:24:06.995Z,12.70
2022-09-18T17:26:33.813Z,12.90
2022-09-18T17:28:59.020Z,13.10
2022-09-18T17:31:22.541Z,13.20
2022-09-18T17:33:47.107Z,13.20
2022-09-18T17:36:14.335Z,13.30
2022-09-18T17:38:38.360Z,13.30
2022-09-18T17:41:05.558Z,13.30
2022-09-18T17:43:29.511Z,13.40
2022-09-18T17:45:57.223Z,13.30
2022-09-18T17:48:20.873Z,13.30
2022-09-18T17:50:44.798Z,13.30
2022-09-18T17:53:08.925Z,13.10
2022-09-18T17:55:35.122Z,13.30
2022-09-18T17:57:58.648Z,13.20
2022-09-18T18:00:22.109Z,13.20
2022-09-18T18:02:46.992Z,13.30
2022-09-18T18:05:10.678Z,13.20
2022-09-18T18:07:34.206Z,13.30
2022-09-18T18:09:57.753Z,13.20
2022-09-18T18:12:21.216Z,13.20
2022-09-18T18:14:44.734Z,13.10
2022-09-18T18:17:08.633Z,13.10
2022-09-18T18:19:33.524Z,13.00
2022-09-18T18:21:56.996Z,13.10
2022-09-18T18:24:20.972Z,13.10
2022-09-18T18:26:45.829Z,13.20
2022-09-18T18:29:11.422Z,13.20
2022-09-18T18:31:35.081Z,13.10
2022-09-18T18:33:59.086Z,13.10
2022-09-18T18:36:25.932Z,13.10
2022-09-18T18:38:53.123Z,13.10
2022-09-18T18:41:19.567Z,13.10
2022-09-18T18:43:44.816Z,13.10
2022-09-18T18:46:12.446Z,13.10
2022-09-18T18:48:36.891Z,13.10
2022-09-18T18:51:00.625Z,13.20
2022-09-18T18:53:25.545Z,13.10
2022-09-18T18:55:49.311Z,13.00
2022-09-18T18:58:13.142Z,13.00
2022-09-18T19:00:36.727Z,12.90
2022-09-18T19:03:02.528Z,12.90
2022-09-18T19:05:30.350Z,12.90
2022-09-18T19:07:53.830Z,12.90
2022-09-18T19:10:19.225Z,12.80
2022-09-18T19:12:42.720Z,12.90
2022-09-18T19:15:07.301Z,12.80
2022-09-18T19:17:30.692Z,12.80
2022-09-18T19:19:54.489Z,12.70
2022-09-18T19:22:18.905Z,12.70
2022-09-18T19:24:42.569Z,12.70
2022-09-18T19:27:07.687Z,12.80
2022-09-18T19:29:31.602Z,12.80
2022-09-18T19:31:55.332Z,12.80
2022-09-18T19:34:21.533Z,12.70
2022-09-18T19:36:50.136Z,12.60
2022-09-18T19:39:14.697Z,12.70
2022-09-18T19:41:43.087Z,12.60
2022-09-18T19:44:14.015Z,12.60
2022-09-18T19:46:38.107Z,12.50
2022-09-18T19:49:01.827Z,12.50
2022-09-18T19:51:25.620Z,12.60
2022-09-18T19:53:49.068Z,12.70
2022-09-18T19:56:27.796Z,12.60
2022-09-18T19:58:56.201Z,12.50
2022-09-18T20:01:21.207Z,12.50
2022-09-18T20:03:44.667Z,12.60
2022-09-18T20:06:09.023Z,12.60
2022-09-18T20:08:32.608Z,12.40
2022-09-18T20:10:56.723Z,12.40
2022-09-18T20:13:20.142Z,12.30
2022-09-18T20:15:45.388Z,12.30
2022-09-18T20:18:10.288Z,12.30
2022-09-18T20:20:37.366Z,12.40
2022-09-18T20:23:00.939Z,12.40
2022-09-18T20:25:26.164Z,12.20
2022-09-18T20:27:49.903Z,12.20
2022-09-18T20:30:14.219Z,12.30
2022-09-18T20:32:37.818Z,12.30
2022-09-18T20:35:03.757Z,12.40
2022-09-18T20:37:32.959Z,12.30
2022-09-18T20:39:56.571Z,12.40
2022-09-18T20:42:20.207Z,12.40
2022-09-18T20:44:43.772Z,12.40
2022-09-18T20:47:07.907Z,12.40
2022-09-18T20:49:32.463Z,12.30
2022-09-18T20:51:57.497Z,12.10
2022-09-18T20:54:22.967Z,12.30
2022-09-18T20:56:46.569Z,12.40
2022-09-18T20:59:12.029Z,12.10
2022-09-18T21:01:37.954Z,12.40
2022-09-18T21:04:03.545Z,12.30
2022-09-18T21:06:31.741Z,12.40
2022-09-18T21:08:57.256Z,12.30
2022-09-18T21:11:24.264Z,12.30
2022-09-18T21:13:48.463Z,12.20
2022-09-18T21:16:12.253Z,12.20
2022-09-18T21:18:36.445Z,12.30
2022-09-18T21:21:04.784Z,12.10
2022-09-18T21:23:48.286Z,12.20
2022-09-18T21:26:17.511Z,12.00
2022-09-18T21:28:41.241Z,12.20
2022-09-18T21:31:11.638Z,12.10
2022-09-18T21:33:36.585Z,11.90
2022-09-18T21:35:59.975Z,11.90
2022-09-18T21:38:23.468Z,12.00
2022-09-18T21:40:47.078Z,12.10
2022-09-18T21:43:14.293Z,12.10
2022-09-18T21:45:38.017Z,12.10
2022-09-18T21:48:06.227Z,12.10
2022-09-18T21:50:29.667Z,12.20
2022-09-18T21:52:53.307Z,12.20
2022-09-18T21:55:16.983Z,12.20
2022-09-18T21:57:40.511Z,12.20
2022-09-18T22:00:08.764Z,12.00
2022-09-18T22:02:36.404Z,12.20
2022-09-18T22:05:01.106Z,12.00
2022-09-18T22:07:25.211Z,11.90
2022-09-18T22:09:49.001Z,11.90
2022-09-18T22:12:12.936Z,11.80
2022-09-18T22:14:38.378Z,11.90
2022-09-18T22:17:06.827Z,11.90
2022-09-18T22:19:30.702Z,12.00
2022-09-18T22:21:54.391Z,11.70
2022-09-18T22:24:20.730Z,12.00
2022-09-18T22:26:47.891Z,11.90
2022-09-18T22:29:17.232Z,11.90
2022-09-18T22:31:40.723Z,11.70
2022-09-18T22:34:06.210Z,11.90
2022-09-18T22:36:30.177Z,11.90
2022-09-18T22:38:54.527Z,11.80
2022-09-18T22:41:18.736Z,11.90
2022-09-18T22:43:42.421Z,11.90
2022-09-18T22:46:07.361Z,11.90
2022-09-18T22:48:33.829Z,11.80
2022-09-18T22:51:06.885Z,11.80
2022-09-18T22:53:30.785Z,11.90
2022-09-18T22:55:54.198Z,11.80
2022-09-18T22:58:18.041Z,11.50
2022-09-18T23:00:41.583Z,11.60
2022-09-18T23:03:05.682Z,11.50
2022-09-18T23:05:29.275Z,11.60
2022-09-18T23:07:54.058Z,11.50
2022-09-18T23:10:17.918Z,11.60
2022-09-18T23:12:41.513Z,11.50
2022-09-18T23:15:09.447Z,11.70
2022-09-18T23:17:32.879Z,11.60
2022-09-18T23:19:56.334Z,11.50
2022-09-18T23:22:19.874Z,11.40
2022-09-18T23:24:44.728Z,11.60
2022-09-18T23:27:08.383Z,11.60
2022-09-18T23:29:32.877Z,11.90
2022-09-18T23:31:57.655Z,11.60
2022-09-18T23:34:23.544Z,11.80
2022-09-18T23:36:49.407Z,11.70
2022-09-18T23:39:17.397Z,11.60
2022-09-18T23:41:43.425Z,11.70
2022-09-18T23:44:09.289Z,11.60
2022-09-18T23:46:33.378Z,12.10
2022-09-18T23:48:56.881Z,11.90
2022-09-18T23:51:20.205Z,11.70
2022-09-18T23:53:43.806Z,11.60
2022-09-18T23:56:10.320Z,11.70
2022-09-18T23:58:35.723Z,11.90
